sensor_id;sensor_type;location;lat;lon;timestamp;pressure;altitude;pressure_sealevel;temperature;humidity
20156;BME280;10238;49.556;10.956;2023-12-07T00:01:23;98614.53;;;1.33;100.00
20156;BME280;10238;49.556;10.956;2023-12-07T00:04:10;98611.00;;;1.34;100.00
20156;BME280;10238;49.556;10.956;2023-12-07T00:06:58;98608.38;;;1.34;100.00
20156;BME280;10238;49.556;10.956;2023-12-07T00:09:46;98608.38;;;1.34;100.00
20156;BME280;10238;49.556;10.956;2023-12-07T00:12:34;98605.75;;;1.34;100.00
20156;BME280;10238;49.556;10.956;2023-12-07T00:15:22;98609.94;;;1.37;100.00
20156;BME280;10238;49.556;10.956;2023-12-07T00:18:11;98609.00;;;1.38;100.00
20156;BME280;10238;49.556;10.956;2023-12-07T00:20:59;98614.25;;;1.38;100.00
20156;BME280;10238;49.556;10.956;2023-12-07T00:23:46;98615.00;;;1.40;100.00
20156;BME280;10238;49.556;10.956;2023-12-07T00:26:33;98626.34;;;1.40;100.00
20156;BME280;10238;49.556;10.956;2023-12-07T00:29:21;98626.22;;;1.42;100.00
20156;BME280;10238;49.556;10.956;2023-12-07T00:32:08;98630.53;;;1.43;100.00
20156;BME280;10238;49.556;10.956;2023-12-07T00:34:57;98633.16;;;1.43;100.00
20156;BME280;10238;49.556;10.956;2023-12-07T00:37:45;98632.22;;;1.44;100.00
20156;BME280;10238;49.556;10.956;2023-12-07T00:40:32;98625.41;;;1.41;100.00
20156;BME280;10238;49.556;10.956;2023-12-07T00:43:22;98639.31;;;1.42;100.00
20156;BME280;10238;49.556;10.956;2023-12-07T00:46:10;98641.09;;;1.41;100.00
20156;BME280;10238;49.556;10.956;2023-12-07T00:48:58;98639.31;;;1.42;100.00
20156;BME280;10238;49.556;10.956;2023-12-07T00:51:47;98641.09;;;1.41;100.00
20156;BME280;10238;49.556;10.956;2023-12-07T00:54:35;98647.06;;;1.43;100.00
20156;BME280;10238;49.556;10.956;2023-12-07T00:57:22;98645.31;;;1.44;100.00
20156;BME280;10238;49.556;10.956;2023-12-07T01:00:11;98645.31;;;1.44;100.00
20156;BME280;10238;49.556;10.956;2023-12-07T01:02:59;98654.94;;;1.43;100.00
20156;BME280;10238;49.556;10.956;2023-12-07T01:05:47;98655.88;;;1.42;100.00
20156;BME280;10238;49.556;10.956;2023-12-07T01:08:37;98661.13;;;1.42;100.00
20156;BME280;10238;49.556;10.956;2023-12-07T01:11:25;98666.34;;;1.42;100.00
20156;BME280;10238;49.556;10.956;2023-12-07T01:14:12;98667.28;;;1.41;100.00
20156;BME280;10238;49.556;10.956;2023-12-07T01:17:00;98670.72;;;1.42;100.00
20156;BME280;10238;49.556;10.956;2023-12-07T01:19:48;98670.00;;;1.40;100.00
20156;BME280;10238;49.556;10.956;2023-12-07T01:22:35;98669.16;;;1.39;100.00
20156;BME280;10238;49.556;10.956;2023-12-07T01:25:25;98676.28;;;1.37;100.00
20156;BME280;10238;49.556;10.956;2023-12-07T01:28:14;98688.41;;;1.38;100.00
20156;BME280;10238;49.556;10.956;2023-12-07T01:31:02;98695.50;;;1.36;100.00
20156;BME280;10238;49.556;10.956;2023-12-07T01:33:52;98701.69;;;1.35;100.00
20156;BME280;10238;49.556;10.956;2023-12-07T01:36:41;98702.63;;;1.34;100.00
20156;BME280;10238;49.556;10.956;2023-12-07T01:39:28;98703.53;;;1.33;100.00
20156;BME280;10238;49.556;10.956;2023-12-07T01:42:17;98707.88;;;1.34;100.00
20156;BME280;10238;49.556;10.956;2023-12-07T01:45:06;98702.63;;;1.34;100.00
20156;BME280;10238;49.556;10.956;2023-12-07T01:47:54;98710.50;;;1.34;100.00
20156;BME280;10238;49.556;10.956;2023-12-07T01:50:45;98718.34;;;1.34;100.00
20156;BME280;10238;49.556;10.956;2023-12-07T01:53:33;98708.78;;;1.33;100.00
20156;BME280;10238;49.556;10.956;2023-12-07T01:56:23;98712.34;;;1.32;100.00
20156;BME280;10238;49.556;10.956;2023-12-07T01:59:13;98714.03;;;1.33;100.00
20156;BME280;10238;49.556;10.956;2023-12-07T02:02:01;98716.72;;;1.32;100.00
20156;BME280;10238;49.556;10.956;2023-12-07T02:04:49;98722.06;;;1.30;100.00
20156;BME280;10238;49.556;10.956;2023-12-07T02:07:38;98719.44;;;1.30;100.00
20156;BME280;10238;49.556;10.956;2023-12-07T02:10:26;98723.00;;;1.29;100.00
20156;BME280;10238;49.556;10.956;2023-12-07T02:13:14;98717.75;;;1.29;100.00
20156;BME280;10238;49.556;10.956;2023-12-07T02:16:10;98719.44;;;1.30;100.00
20156;BME280;10238;49.556;10.956;2023-12-07T02:19:16;98722.81;;;1.32;100.00
20156;BME280;10238;49.556;10.956;2023-12-07T02:22:20;98725.44;;;1.32;100.00
20156;BME280;10238;49.556;10.956;2023-12-07T02:25:14;98721.13;;;1.31;100.00
20156;BME280;10238;49.556;10.956;2023-12-07T02:28:03;98728.16;;;1.31;100.00
20156;BME280;10238;49.556;10.956;2023-12-07T02:30:51;98721.31;;;1.28;100.00
20156;BME280;10238;49.556;10.956;2023-12-07T02:33:38;98723.00;;;1.29;100.00
20156;BME280;10238;49.556;10.956;2023-12-07T02:36:29;98722.13;;;1.29;100.00
20156;BME280;10238;49.556;10.956;2023-12-07T02:39:18;98722.13;;;1.29;100.00
20156;BME280;10238;49.556;10.956;2023-12-07T02:42:06;98722.13;;;1.29;100.00
20156;BME280;10238;49.556;10.956;2023-12-07T02:44:56;98724.66;;;1.30;100.00
20156;BME280;10238;49.556;10.956;2023-12-07T02:47:44;98727.19;;;1.32;100.00
20156;BME280;10238;49.556;10.956;2023-12-07T02:50:32;98725.44;;;1.32;100.00
20156;BME280;10238;49.556;10.956;2023-12-07T02:53:20;98716.72;;;1.32;100.00
20156;BME280;10238;49.556;10.956;2023-12-07T02:56:08;98722.81;;;1.32;100.00
20156;BME280;10238;49.556;10.956;2023-12-07T02:58:55;98722.81;;;1.32;100.00
20156;BME280;10238;49.556;10.956;2023-12-07T03:01:44;98736.00;;;1.31;100.00
20156;BME280;10238;49.556;10.956;2023-12-07T03:04:32;98733.47;;;1.29;100.00
20156;BME280;10238;49.556;10.956;2023-12-07T03:07:20;98730.84;;;1.29;100.00
20156;BME280;10238;49.556;10.956;2023-12-07T03:10:09;98733.56;;;1.28;100.00
20156;BME280;10238;49.556;10.956;2023-12-07T03:12:57;98734.50;;;1.27;100.00
20156;BME280;10238;49.556;10.956;2023-12-07T03:15:44;98741.59;;;1.25;100.00
20156;BME280;10238;49.556;10.956;2023-12-07T03:18:33;98734.75;;;1.22;100.00
20156;BME280;10238;49.556;10.956;2023-12-07T03:21:20;98740.09;;;1.21;100.00
20156;BME280;10238;49.556;10.956;2023-12-07T03:24:09;98746.34;;;1.18;100.00
20156;BME280;10238;49.556;10.956;2023-12-07T03:26:56;98744.63;;;1.17;100.00
20156;BME280;10238;49.556;10.956;2023-12-07T03:29:44;98742.00;;;1.17;100.00
20156;BME280;10238;49.556;10.956;2023-12-07T03:32:34;98741.28;;;1.15;100.00
20156;BME280;10238;49.556;10.956;2023-12-07T03:35:23;98743.97;;;1.14;100.00
20156;BME280;10238;49.556;10.956;2023-12-07T03:38:11;98739.56;;;1.14;100.00
20156;BME280;10238;49.556;10.956;2023-12-07T03:40:58;98750.03;;;1.14;100.00
20156;BME280;10238;49.556;10.956;2023-12-07T03:43:45;98739.66;;;1.13;100.00
20156;BME280;10238;49.556;10.956;2023-12-07T03:46:34;98748.38;;;1.13;100.00
20156;BME280;10238;49.556;10.956;2023-12-07T03:49:23;98745.75;;;1.13;100.00
20156;BME280;10238;49.556;10.956;2023-12-07T03:52:12;98749.22;;;1.14;100.00
20156;BME280;10238;49.556;10.956;2023-12-07T03:55:00;98759.69;;;1.14;100.00
20156;BME280;10238;49.556;10.956;2023-12-07T03:57:48;98756.31;;;1.12;100.00
20156;BME280;10238;49.556;10.956;2023-12-07T04:00:36;98752.09;;;1.09;100.00
20156;BME280;10238;49.556;10.956;2023-12-07T04:03:23;98757.34;;;1.09;100.00
20156;BME280;10238;49.556;10.956;2023-12-07T04:06:11;98764.41;;;1.07;100.00
20156;BME280;10238;49.556;10.956;2023-12-07T04:09:00;98771.31;;;1.08;100.00
20156;BME280;10238;49.556;10.956;2023-12-07T04:11:49;98765.28;;;1.08;100.00
20156;BME280;10238;49.556;10.956;2023-12-07T04:14:37;98761.78;;;1.07;100.00
20156;BME280;10238;49.556;10.956;2023-12-07T04:17:24;98767.13;;;1.06;100.00
20156;BME280;10238;49.556;10.956;2023-12-07T04:20:12;98765.44;;;1.05;100.00
20156;BME280;10238;49.556;10.956;2023-12-07T04:23:00;98766.28;;;1.05;100.00
20156;BME280;10238;49.556;10.956;2023-12-07T04:25:49;98770.69;;;1.05;100.00
20156;BME280;10238;49.556;10.956;2023-12-07T04:28:37;98775.06;;;1.04;100.00
20156;BME280;10238;49.556;10.956;2023-12-07T04:31:24;98777.75;;;1.03;100.00
20156;BME280;10238;49.556;10.956;2023-12-07T04:34:12;98776.06;;;1.02;100.00
20156;BME280;10238;49.556;10.956;2023-12-07T04:36:59;98781.41;;;1.00;100.00
20156;BME280;10238;49.556;10.956;2023-12-07T04:39:47;98779.72;;;0.99;100.00
20156;BME280;10238;49.556;10.956;2023-12-07T04:42:36;98779.03;;;0.96;100.00
20156;BME280;10238;49.556;10.956;2023-12-07T04:45:23;98784.44;;;0.93;100.00
20156;BME280;10238;49.556;10.956;2023-12-07T04:48:11;98786.38;;;0.89;100.00
20156;BME280;10238;49.556;10.956;2023-12-07T04:50:59;98789.19;;;0.86;100.00
20156;BME280;10238;49.556;10.956;2023-12-07T04:53:47;98792.88;;;0.82;100.00
20156;BME280;10238;49.556;10.956;2023-12-07T04:56:35;98787.06;;;0.77;100.00
20156;BME280;10238;49.556;10.956;2023-12-07T04:59:25;98793.28;;;0.75;100.00
20156;BME280;10238;49.556;10.956;2023-12-07T05:02:13;98789.25;;;0.69;100.00
20156;BME280;10238;49.556;10.956;2023-12-07T05:05:01;98787.72;;;0.65;100.00
20156;BME280;10238;49.556;10.956;2023-12-07T05:07:49;98790.50;;;0.62;100.00
20156;BME280;10238;49.556;10.956;2023-12-07T05:10:36;98785.53;;;0.58;100.00
20156;BME280;10238;49.556;10.956;2023-12-07T05:13:24;98783.16;;;0.53;100.00
20156;BME280;10238;49.556;10.956;2023-12-07T05:16:14;98792.09;;;0.49;100.00
20156;BME280;10238;49.556;10.956;2023-12-07T05:19:02;98800.19;;;0.45;100.00
20156;BME280;10238;49.556;10.956;2023-12-07T05:21:50;98793.44;;;0.41;100.00
20156;BME280;10238;49.556;10.956;2023-12-07T05:24:37;98797.97;;;0.37;100.00
20156;BME280;10238;49.556;10.956;2023-12-07T05:27:25;98799.84;;;0.35;100.00
20156;BME280;10238;49.556;10.956;2023-12-07T05:30:14;98799.22;;;0.30;100.00
20156;BME280;10238;49.556;10.956;2023-12-07T05:33:03;98814.28;;;0.25;100.00
20156;BME280;10238;49.556;10.956;2023-12-07T05:35:51;98802.38;;;0.20;100.00
20156;BME280;10238;49.556;10.956;2023-12-07T05:38:39;98801.81;;;0.15;100.00
20156;BME280;10238;49.556;10.956;2023-12-07T05:41:26;98802.78;;;0.12;100.00
20156;BME280;10238;49.556;10.956;2023-12-07T05:44:14;98803.78;;;0.10;100.00
20156;BME280;10238;49.556;10.956;2023-12-07T05:47:08;98811.78;;;0.07;100.00
20156;BME280;10238;49.556;10.956;2023-12-07T05:49:56;98811.03;;;0.04;100.00
20156;BME280;10238;49.556;10.956;2023-12-07T05:52:46;98816.41;;;0.01;100.00
20156;BME280;10238;49.556;10.956;2023-12-07T05:55:34;98820.09;;;-0.03;100.00
20156;BME280;10238;49.556;10.956;2023-12-07T05:58:22;98819.44;;;-0.06;100.00
20156;BME280;10238;49.556;10.956;2023-12-07T06:01:09;98818.97;;;-0.14;100.00
20156;BME280;10238;49.556;10.956;2023-12-07T06:03:57;98826.94;;;-0.17;100.00
20156;BME280;10238;49.556;10.956;2023-12-07T06:06:47;98822.81;;;-0.21;100.00
20156;BME280;10238;49.556;10.956;2023-12-07T06:09:34;98832.47;;;-0.23;100.00
20156;BME280;10238;49.556;10.956;2023-12-07T06:12:22;98831.72;;;-0.25;100.00
20156;BME280;10238;49.556;10.956;2023-12-07T06:15:12;98823.97;;;-0.27;100.00
20156;BME280;10238;49.556;10.956;2023-12-07T06:17:59;98836.25;;;-0.29;100.00
20156;BME280;10238;49.556;10.956;2023-12-07T06:20:47;98836.31;;;-0.30;100.00
20156;BME280;10238;49.556;10.956;2023-12-07T06:23:37;98835.47;;;-0.31;100.00
20156;BME280;10238;49.556;10.956;2023-12-07T06:26:25;98833.00;;;-0.34;100.00
20156;BME280;10238;49.556;10.956;2023-12-07T06:29:12;98843.63;;;-0.37;100.00
20156;BME280;10238;49.556;10.956;2023-12-07T06:32:00;98845.53;;;-0.40;100.00
20156;BME280;10238;49.556;10.956;2023-12-07T06:34:48;98847.38;;;-0.42;100.00
20156;BME280;10238;49.556;10.956;2023-12-07T06:37:35;98845.84;;;-0.46;100.00
20156;BME280;10238;49.556;10.956;2023-12-07T06:40:25;98835.53;;;-0.49;100.00
20156;BME280;10238;49.556;10.956;2023-12-07T06:43:12;98843.53;;;-0.52;100.00
20156;BME280;10238;49.556;10.956;2023-12-07T06:46:00;98841.13;;;-0.57;100.00
20156;BME280;10238;49.556;10.956;2023-12-07T06:48:48;98844.75;;;-0.59;100.00
20156;BME280;10238;49.556;10.956;2023-12-07T06:51:36;98843.06;;;-0.60;100.00
20156;BME280;10238;49.556;10.956;2023-12-07T06:54:25;98845.81;;;-0.63;100.00
20156;BME280;10238;49.556;10.956;2023-12-07T06:57:14;98851.94;;;-0.64;100.00
20156;BME280;10238;49.556;10.956;2023-12-07T07:00:02;98845.81;;;-0.63;100.00
20156;BME280;10238;49.556;10.956;2023-12-07T07:02:59;98855.47;;;-0.65;100.00
20156;BME280;10238;49.556;10.956;2023-12-07T07:05:50;98852.94;;;-0.67;100.00
20156;BME280;10238;49.556;10.956;2023-12-07T07:08:37;98859.09;;;-0.68;100.00
20156;BME280;10238;49.556;10.956;2023-12-07T07:11:25;98859.97;;;-0.69;100.00
20156;BME280;10238;49.556;10.956;2023-12-07T07:14:14;98861.84;;;-0.71;100.00
20156;BME280;10238;49.556;10.956;2023-12-07T07:17:02;98861.84;;;-0.71;100.00
20156;BME280;10238;49.556;10.956;2023-12-07T07:19:50;98866.22;;;-0.71;100.00
20156;BME280;10238;49.556;10.956;2023-12-07T07:22:38;98867.88;;;-0.70;100.00
20156;BME280;10238;49.556;10.956;2023-12-07T07:25:27;98874.47;;;-0.62;100.00
20156;BME280;10238;49.556;10.956;2023-12-07T07:28:15;98877.00;;;-0.60;100.00
20156;BME280;10238;49.556;10.956;2023-12-07T07:31:05;98877.16;;;-0.63;100.00
20156;BME280;10238;49.556;10.956;2023-12-07T07:33:53;98875.28;;;-0.61;100.00
20156;BME280;10238;49.556;10.956;2023-12-07T07:36:47;98873.38;;;-0.58;100.00
20156;BME280;10238;49.556;10.956;2023-12-07T07:39:36;98878.38;;;-0.53;100.00
20156;BME280;10238;49.556;10.956;2023-12-07T07:42:24;98878.25;;;-0.50;100.00
20156;BME280;10238;49.556;10.956;2023-12-07T07:45:12;98881.75;;;-0.51;100.00
20156;BME280;10238;49.556;10.956;2023-12-07T07:48:01;98886.97;;;-0.51;100.00
20156;BME280;10238;49.556;10.956;2023-12-07T07:50:49;98880.84;;;-0.50;100.00
20156;BME280;10238;49.556;10.956;2023-12-07T07:53:37;98879.00;;;-0.48;100.00
20156;BME280;10238;49.556;10.956;2023-12-07T07:56:24;98884.06;;;-0.45;100.00
20156;BME280;10238;49.556;10.956;2023-12-07T07:59:12;98884.84;;;-0.43;100.00
20156;BME280;10238;49.556;10.956;2023-12-07T08:01:59;98889.94;;;-0.40;100.00
20156;BME280;10238;49.556;10.956;2023-12-07T08:04:48;98886.25;;;-0.36;100.00
20156;BME280;10238;49.556;10.956;2023-12-07T08:07:38;98883.47;;;-0.33;100.00
20156;BME280;10238;49.556;10.956;2023-12-07T08:10:26;98877.25;;;-0.31;100.00
20156;BME280;10238;49.556;10.956;2023-12-07T08:13:14;98882.19;;;-0.25;100.00
20156;BME280;10238;49.556;10.956;2023-12-07T08:16:02;98885.28;;;-0.17;100.00
20156;BME280;10238;49.556;10.956;2023-12-07T08:18:50;98883.97;;;-0.08;100.00
20156;BME280;10238;49.556;10.956;2023-12-07T08:21:39;98889.56;;;0.01;100.00
20156;BME280;10238;49.556;10.956;2023-12-07T08:24:27;98887.66;;;0.05;100.00
20156;BME280;10238;49.556;10.956;2023-12-07T08:27:14;98890.03;;;0.10;100.00
20156;BME280;10238;49.556;10.956;2023-12-07T08:30:02;98897.72;;;0.13;100.00
20156;BME280;10238;49.556;10.956;2023-12-07T08:32:50;98892.19;;;0.19;100.00
20156;BME280;10238;49.556;10.956;2023-12-07T08:35:38;98898.78;;;0.26;100.00
20156;BME280;10238;49.556;10.956;2023-12-07T08:38:27;98896.81;;;0.31;100.00
20156;BME280;10238;49.556;10.956;2023-12-07T08:41:15;98895.72;;;0.35;100.00
20156;BME280;10238;49.556;10.956;2023-12-07T08:44:04;98890.41;;;0.36;100.00
20156;BME280;10238;49.556;10.956;2023-12-07T08:46:54;98895.94;;;0.30;100.00
20156;BME280;10238;49.556;10.956;2023-12-07T08:49:42;98894.28;;;0.29;100.00
20156;BME280;10238;49.556;10.956;2023-12-07T08:52:42;98903.00;;;0.28;100.00
20156;BME280;10238;49.556;10.956;2023-12-07T08:55:49;98894.13;;;0.32;100.00
20156;BME280;10238;49.556;10.956;2023-12-07T08:58:47;98898.91;;;0.40;100.00
20156;BME280;10238;49.556;10.956;2023-12-07T09:02:03;98908.16;;;0.47;100.00
20156;BME280;10238;49.556;10.956;2023-12-07T09:05:23;98910.19;;;0.57;100.00
20156;BME280;10238;49.556;10.956;2023-12-07T09:08:15;98906.22;;;0.67;100.00
20156;BME280;10238;49.556;10.956;2023-12-07T09:11:19;98908.31;;;0.76;100.00
20156;BME280;10238;49.556;10.956;2023-12-07T09:14:38;98899.81;;;0.88;100.00
20156;BME280;10238;49.556;10.956;2023-12-07T09:17:26;98902.88;;;0.96;100.00
20156;BME280;10238;49.556;10.956;2023-12-07T09:20:14;98906.78;;;1.05;100.00
20156;BME280;10238;49.556;10.956;2023-12-07T09:23:02;98909.22;;;1.08;100.00
20156;BME280;10238;49.556;10.956;2023-12-07T09:25:50;98902.91;;;1.12;100.00
20156;BME280;10238;49.556;10.956;2023-12-07T09:28:40;98901.97;;;1.13;100.00
20156;BME280;10238;49.556;10.956;2023-12-07T09:31:54;98910.59;;;1.15;100.00
20156;BME280;10238;49.556;10.956;2023-12-07T09:34:55;98906.78;;;1.20;100.00
20156;BME280;10238;49.556;10.956;2023-12-07T09:37:52;98908.50;;;1.21;100.00
20156;BME280;10238;49.556;10.956;2023-12-07T09:40:51;98905.09;;;1.19;100.00
20156;BME280;10238;49.556;10.956;2023-12-07T09:43:41;98901.38;;;1.23;100.00
20156;BME280;10238;49.556;10.956;2023-12-07T09:46:30;98897.66;;;1.27;100.00
20156;BME280;10238;49.556;10.956;2023-12-07T09:49:18;98898.44;;;1.29;100.00
20156;BME280;10238;49.556;10.956;2023-12-07T09:52:08;98903.06;;;1.40;100.00
20156;BME280;10238;49.556;10.956;2023-12-07T09:54:59;98890.91;;;1.54;100.00
20156;BME280;10238;49.556;10.956;2023-12-07T09:57:49;98888.25;;;1.70;100.00
20156;BME280;10238;49.556;10.956;2023-12-07T10:00:38;98881.94;;;1.74;100.00
20156;BME280;10238;49.556;10.956;2023-12-07T10:03:26;98873.91;;;1.77;100.00
20156;BME280;10238;49.556;10.956;2023-12-07T10:06:14;98870.88;;;1.83;100.00
20156;BME280;10238;49.556;10.956;2023-12-07T10:09:04;98868.19;;;1.84;100.00
20156;BME280;10238;49.556;10.956;2023-12-07T10:12:04;98866.50;;;1.83;100.00
20156;BME280;10238;49.556;10.956;2023-12-07T10:14:52;98870.47;;;1.90;100.00
20156;BME280;10238;49.556;10.956;2023-12-07T10:17:50;98875.59;;;1.92;100.00
20156;BME280;10238;49.556;10.956;2023-12-07T10:20:48;98867.09;;;1.88;100.00
20156;BME280;10238;49.556;10.956;2023-12-07T10:23:36;98857.34;;;1.90;100.00
20156;BME280;10238;49.556;10.956;2023-12-07T10:26:24;98864.47;;;1.88;100.00
20156;BME280;10238;49.556;10.956;2023-12-07T10:29:12;98864.66;;;1.85;100.00
20156;BME280;10238;49.556;10.956;2023-12-07T10:32:15;98861.25;;;1.83;100.00
20156;BME280;10238;49.556;10.956;2023-12-07T10:35:07;98865.47;;;1.86;100.00
20156;BME280;10238;49.556;10.956;2023-12-07T10:37:55;98863.63;;;1.88;100.00
20156;BME280;10238;49.556;10.956;2023-12-07T10:40:43;98860.47;;;1.97;100.00
20156;BME280;10238;49.556;10.956;2023-12-07T10:43:35;98855.53;;;2.06;100.00
20156;BME280;10238;49.556;10.956;2023-12-07T10:46:24;98860.41;;;2.12;100.00
20156;BME280;10238;49.556;10.956;2023-12-07T10:49:19;98851.31;;;2.18;100.00
20156;BME280;10238;49.556;10.956;2023-12-07T10:52:25;98854.34;;;2.26;100.00
20156;BME280;10238;49.556;10.956;2023-12-07T10:55:18;98849.56;;;2.33;100.00
20156;BME280;10238;49.556;10.956;2023-12-07T10:58:11;98845.25;;;2.32;100.00
20156;BME280;10238;49.556;10.956;2023-12-07T11:01:00;98849.56;;;2.33;100.00
20156;BME280;10238;49.556;10.956;2023-12-07T11:03:50;98845.94;;;2.35;100.00
20156;BME280;10238;49.556;10.956;2023-12-07T11:06:40;98840.69;;;2.35;100.00
20156;BME280;10238;49.556;10.956;2023-12-07T11:09:38;98837.72;;;2.41;100.00
20156;BME280;10238;49.556;10.956;2023-12-07T11:13:02;98833.09;;;2.45;100.00
20156;BME280;10238;49.556;10.956;2023-12-07T11:16:52;98826.94;;;2.46;100.00
20156;BME280;10238;49.556;10.956;2023-12-07T11:20:03;98818.13;;;2.47;100.00
20156;BME280;10238;49.556;10.956;2023-12-07T11:22:52;98810.59;;;2.55;100.00
20156;BME280;10238;49.556;10.956;2023-12-07T11:26:10;98812.66;;;2.64;100.00
20156;BME280;10238;49.556;10.956;2023-12-07T11:33:02;98798.81;;;2.62;100.00
20156;BME280;10238;49.556;10.956;2023-12-07T11:36:11;98787.19;;;2.66;100.00
20156;BME280;10238;49.556;10.956;2023-12-07T11:39:16;98791.31;;;2.70;100.00
20156;BME280;10238;49.556;10.956;2023-12-07T11:42:32;98797.84;;;2.77;100.00
20156;BME280;10238;49.556;10.956;2023-12-07T11:45:40;98787.91;;;2.82;100.00
20156;BME280;10238;49.556;10.956;2023-12-07T11:48:38;98783.28;;;2.85;100.00
20156;BME280;10238;49.556;10.956;2023-12-07T11:51:30;98782.91;;;2.91;100.00
20156;BME280;10238;49.556;10.956;2023-12-07T11:54:22;98776.66;;;2.94;100.00
20156;BME280;10238;49.556;10.956;2023-12-07T11:57:14;98772.13;;;2.96;100.00
20156;BME280;10238;49.556;10.956;2023-12-07T12:00:06;98776.78;;;3.05;100.00
20156;BME280;10238;49.556;10.956;2023-12-07T12:03:07;98776.41;;;3.11;100.00
20156;BME280;10238;49.556;10.956;2023-12-07T12:05:56;98773.69;;;3.12;100.00
20156;BME280;10238;49.556;10.956;2023-12-07T12:08:44;98770.97;;;3.14;100.00
20156;BME280;10238;49.556;10.956;2023-12-07T12:11:46;98768.44;;;3.12;100.00
20156;BME280;10238;49.556;10.956;2023-12-07T12:15:15;98770.97;;;3.14;100.00
20156;BME280;10238;49.556;10.956;2023-12-07T12:18:49;98763.41;;;3.22;100.00
20156;BME280;10238;49.556;10.956;2023-12-07T12:21:54;98755.34;;;3.25;100.00
20156;BME280;10238;49.556;10.956;2023-12-07T12:25:02;98764.38;;;3.21;100.00
20156;BME280;10238;49.556;10.956;2023-12-07T12:28:08;98763.84;;;3.16;100.00
20156;BME280;10238;49.556;10.956;2023-12-07T12:31:57;98756.47;;;3.21;100.00
20156;BME280;10238;49.556;10.956;2023-12-07T12:35:02;98748.19;;;3.14;100.00
20156;BME280;10238;49.556;10.956;2023-12-07T12:37:56;98736.63;;;3.17;100.00
20156;BME280;10238;49.556;10.956;2023-12-07T12:40:47;98741.56;;;3.21;100.00
20156;BME280;10238;49.556;10.956;2023-12-07T12:43:35;98741.13;;;3.15;100.00
20156;BME280;10238;49.556;10.956;2023-12-07T12:46:24;98741.13;;;3.15;100.00
20156;BME280;10238;49.556;10.956;2023-12-07T12:49:12;98725.91;;;3.20;100.00
20156;BME280;10238;49.556;10.956;2023-12-07T12:52:10;98732.72;;;3.10;100.00
20156;BME280;10238;49.556;10.956;2023-12-07T12:55:00;98725.75;;;3.09;100.00
20156;BME280;10238;49.556;10.956;2023-12-07T12:57:55;98729.34;;;3.08;100.00
20156;BME280;10238;49.556;10.956;2023-12-07T13:00:50;98733.72;;;3.07;100.00
20156;BME280;10238;49.556;10.956;2023-12-07T13:03:39;98729.34;;;3.08;100.00
20156;BME280;10238;49.556;10.956;2023-12-07T13:06:32;98722.22;;;3.10;100.00
20156;BME280;10238;49.556;10.956;2023-12-07T13:09:25;98713.28;;;3.12;100.00
20156;BME280;10238;49.556;10.956;2023-12-07T13:12:17;98711.50;;;3.13;100.00
20156;BME280;10238;49.556;10.956;2023-12-07T13:15:06;98690.50;;;3.13;100.00
20156;BME280;10238;49.556;10.956;2023-12-07T13:17:53;98686.91;;;3.14;100.00
20156;BME280;10238;49.556;10.956;2023-12-07T13:20:43;98686.06;;;3.13;100.00
20156;BME280;10238;49.556;10.956;2023-12-07T13:23:41;98683.75;;;3.09;100.00
20156;BME280;10238;49.556;10.956;2023-12-07T13:26:30;98671.56;;;3.08;100.00
20156;BME280;10238;49.556;10.956;2023-12-07T13:29:23;98666.09;;;2.98;100.00
20156;BME280;10238;49.556;10.956;2023-12-07T13:32:21;98672.75;;;2.90;100.00
20156;BME280;10238;49.556;10.956;2023-12-07T13:35:10;98668.84;;;2.83;100.00
20156;BME280;10238;49.556;10.956;2023-12-07T13:38:00;98667.66;;;2.74;100.00
20156;BME280;10238;49.556;10.956;2023-12-07T13:40:48;98667.28;;;2.66;100.00
20156;BME280;10238;49.556;10.956;2023-12-07T13:43:36;98653.00;;;2.58;100.00
20156;BME280;10238;49.556;10.956;2023-12-07T13:46:24;98665.56;;;2.53;100.00
20156;BME280;10238;49.556;10.956;2023-12-07T13:49:11;98669.53;;;2.46;100.00
20156;BME280;10238;49.556;10.956;2023-12-07T13:52:13;98668.88;;;2.42;100.00
20156;BME280;10238;49.556;10.956;2023-12-07T13:55:05;98669.16;;;2.38;100.00
20156;BME280;10238;49.556;10.956;2023-12-07T13:57:54;98671.22;;;2.33;100.00
20156;BME280;10238;49.556;10.956;2023-12-07T14:00:43;98667.22;;;2.27;100.00
20156;BME280;10238;49.556;10.956;2023-12-07T14:03:32;98663.19;;;2.21;100.00
20156;BME280;10238;49.556;10.956;2023-12-07T14:06:24;98659.19;;;2.16;100.00
20156;BME280;10238;49.556;10.956;2023-12-07T14:09:15;98654.13;;;2.13;100.00
20156;BME280;10238;49.556;10.956;2023-12-07T14:12:05;98657.97;;;2.07;100.00
20156;BME280;10238;49.556;10.956;2023-12-07T14:14:54;98652.16;;;2.02;100.00
20156;BME280;10238;49.556;10.956;2023-12-07T14:17:42;98658.63;;;1.97;100.00
20156;BME280;10238;49.556;10.956;2023-12-07T14:20:41;98652.72;;;1.93;100.00
20156;BME280;10238;49.556;10.956;2023-12-07T14:23:50;98654.81;;;1.88;100.00
20156;BME280;10238;49.556;10.956;2023-12-07T14:26:42;98655.00;;;1.85;100.00
20156;BME280;10238;49.556;10.956;2023-12-07T14:29:31;98657.88;;;1.81;100.00
20156;BME280;10238;49.556;10.956;2023-12-07T14:32:20;98659.13;;;1.75;100.00
20156;BME280;10238;49.556;10.956;2023-12-07T14:35:08;98657.78;;;1.68;100.00
20156;BME280;10238;49.556;10.956;2023-12-07T14:37:56;98652.72;;;1.65;100.00
20156;BME280;10238;49.556;10.956;2023-12-07T14:40:45;98651.31;;;1.60;100.00
20156;BME280;10238;49.556;10.956;2023-12-07T14:43:32;98657.78;;;1.54;100.00
20156;BME280;10238;49.556;10.956;2023-12-07T14:46:21;98663.28;;;1.50;100.00
20156;BME280;10238;49.556;10.956;2023-12-07T14:49:09;98664.41;;;1.46;100.00
20156;BME280;10238;49.556;10.956;2023-12-07T14:51:57;98668.22;;;1.40;100.00
20156;BME280;10238;49.556;10.956;2023-12-07T14:54:45;98663.28;;;1.36;100.00
20156;BME280;10238;49.556;10.956;2023-12-07T14:57:35;98658.47;;;1.28;100.00